sensor_id;sensor_type;location;lat;lon;timestamp;pressure;altitude;pressure_sealevel;temperature;humidity
54369;BME280;40266;52.434;17.056;2023-04-09T00:00:05;101571.80;;;4.75;90.81
54369;BME280;40266;52.434;17.056;2023-04-09T00:03:13;101572.63;;;4.81;90.78
54369;BME280;40266;52.434;17.056;2023-04-09T00:05:56;101569.29;;;4.87;90.56
54369;BME280;40266;52.434;17.056;2023-04-09T00:08:39;101566.27;;;4.92;90.43
54369;BME280;40266;52.434;17.056;2023-04-09T00:11:22;101572.41;;;4.97;90.23
54369;BME280;40266;52.434;17.056;2023-04-09T00:14:04;101572.14;;;5.00;90.37
54369;BME280;40266;52.434;17.056;2023-04-09T00:16:47;101569.97;;;5.04;90.15
54369;BME280;40266;52.434;17.056;2023-04-09T00:19:30;101570.91;;;5.08;90.18
54369;BME280;40266;52.434;17.056;2023-04-09T00:22:14;101566.48;;;5.12;90.00
54369;BME280;40266;52.434;17.056;2023-04-09T00:24:57;101570.02;;;5.16;90.00
54369;BME280;40266;52.434;17.056;2023-04-09T00:27:40;101569.58;;;5.20;89.81
54369;BME280;40266;52.434;17.056;2023-04-09T00:30:23;101571.37;;;5.23;89.81
54369;BME280;40266;52.434;17.056;2023-04-09T00:33:05;101567.95;;;5.25;89.89
54369;BME280;40266;52.434;17.056;2023-04-09T00:35:48;101570.27;;;5.28;89.77
54369;BME280;40266;52.434;17.056;2023-04-09T00:38:31;101573.08;;;5.31;89.67
54369;BME280;40266;52.434;17.056;2023-04-09T00:41:14;101572.08;;;5.34;89.67
54369;BME280;40266;52.434;17.056;2023-04-09T00:43:58;101567.09;;;5.35;89.61
54369;BME280;40266;52.434;17.056;2023-04-09T00:46:41;101568.52;;;5.38;89.50
54369;BME280;40266;52.434;17.056;2023-04-09T00:49:24;101564.23;;;5.39;89.41
54369;BME280;40266;52.434;17.056;2023-04-09T00:52:08;101560.45;;;5.41;89.54
54369;BME280;40266;52.434;17.056;2023-04-09T00:54:51;101558.55;;;5.42;89.53
54369;BME280;40266;52.434;17.056;2023-04-09T00:57:34;101558.20;;;5.42;89.53
54369;BME280;40266;52.434;17.056;2023-04-09T01:00:17;101559.23;;;5.41;89.36
54369;BME280;40266;52.434;17.056;2023-04-09T01:03:00;101557.12;;;5.39;89.33
54369;BME280;40266;52.434;17.056;2023-04-09T01:05:49;101557.60;;;5.37;89.37
54369;BME280;40266;52.434;17.056;2023-04-09T01:09:11;101558.11;;;5.37;89.34
54369;BME280;40266;52.434;17.056;2023-04-09T01:20:22;101559.11;;;5.35;89.30
54369;BME280;40266;52.434;17.056;2023-04-09T01:29:14;101559.28;;;5.35;89.25
54369;BME280;40266;52.434;17.056;2023-04-09T01:31:58;101560.65;;;5.34;89.34
54369;BME280;40266;52.434;17.056;2023-04-09T01:34:42;101561.35;;;5.34;89.36
54369;BME280;40266;52.434;17.056;2023-04-09T01:37:26;101564.13;;;5.34;89.20
54369;BME280;40266;52.434;17.056;2023-04-09T01:40:10;101567.09;;;5.34;89.10
54369;BME280;40266;52.434;17.056;2023-04-09T01:42:52;101568.13;;;5.35;89.05
54369;BME280;40266;52.434;17.056;2023-04-09T01:45:36;101567.08;;;5.35;89.30
54369;BME280;40266;52.434;17.056;2023-04-09T01:48:19;101570.55;;;5.35;89.33
54369;BME280;40266;52.434;17.056;2023-04-09T01:51:03;101568.64;;;5.35;89.38
54369;BME280;40266;52.434;17.056;2023-04-09T01:53:47;101567.59;;;5.35;89.45
54369;BME280;40266;52.434;17.056;2023-04-09T01:56:43;101566.75;;;5.36;89.31
54369;BME280;40266;52.434;17.056;2023-04-09T01:59:26;101566.76;;;5.36;89.44
54369;BME280;40266;52.434;17.056;2023-04-09T02:02:11;101563.13;;;5.36;89.40
54369;BME280;40266;52.434;17.056;2023-04-09T02:04:59;101565.56;;;5.36;89.41
54369;BME280;40266;52.434;17.056;2023-04-09T02:07:46;101565.90;;;5.37;89.46
54369;BME280;40266;52.434;17.056;2023-04-09T02:10:29;101565.05;;;5.37;89.52
54369;BME280;40266;52.434;17.056;2023-04-09T02:13:13;101568.50;;;5.37;89.67
54369;BME280;40266;52.434;17.056;2023-04-09T02:15:58;101566.44;;;5.37;89.53
54369;BME280;40266;52.434;17.056;2023-04-09T02:18:41;101565.57;;;5.37;89.67
54369;BME280;40266;52.434;17.056;2023-04-09T02:21:25;101565.91;;;5.37;89.61
54369;BME280;40266;52.434;17.056;2023-04-09T02:24:10;101562.42;;;5.36;89.68
54369;BME280;40266;52.434;17.056;2023-04-09T02:26:52;101560.01;;;5.36;89.60
54369;BME280;40266;52.434;17.056;2023-04-09T02:29:35;101564.14;;;5.36;89.68
54369;BME280;40266;52.434;17.056;2023-04-09T02:32:18;101565.36;;;5.36;89.76
54369;BME280;40266;52.434;17.056;2023-04-09T02:35:01;101562.58;;;5.35;89.69
54369;BME280;40266;52.434;17.056;2023-04-09T02:37:43;101557.72;;;5.34;89.85
54369;BME280;40266;52.434;17.056;2023-04-09T02:40:27;101558.40;;;5.34;89.86
54369;BME280;40266;52.434;17.056;2023-04-09T02:43:10;101556.82;;;5.32;89.82
54369;BME280;40266;52.434;17.056;2023-04-09T02:45:53;101555.91;;;5.31;89.92
54369;BME280;40266;52.434;17.056;2023-04-09T02:48:36;101552.98;;;5.31;89.91
54369;BME280;40266;52.434;17.056;2023-04-09T02:51:19;101552.97;;;5.30;89.93
54369;BME280;40266;52.434;17.056;2023-04-09T02:54:02;101545.17;;;5.30;90.08
54369;BME280;40266;52.434;17.056;2023-04-09T02:56:45;101541.88;;;5.30;90.13
54369;BME280;40266;52.434;17.056;2023-04-09T02:59:27;101544.48;;;5.31;89.95
54369;BME280;40266;52.434;17.056;2023-04-09T03:02:10;101545.34;;;5.31;89.80
54369;BME280;40266;52.434;17.056;2023-04-09T03:04:54;101543.45;;;5.30;89.96
54369;BME280;40266;52.434;17.056;2023-04-09T03:07:37;101539.63;;;5.31;89.91
54369;BME280;40266;52.434;17.056;2023-04-09T03:10:20;101535.30;;;5.30;89.87
54369;BME280;40266;52.434;17.056;2023-04-09T03:13:03;101530.77;;;5.29;89.85
54369;BME280;40266;52.434;17.056;2023-04-09T03:15:50;101530.41;;;5.28;89.90
54369;BME280;40266;52.434;17.056;2023-04-09T03:18:32;101528.48;;;5.26;89.92
54369;BME280;40266;52.434;17.056;2023-04-09T03:21:16;101524.82;;;5.25;89.90
54369;BME280;40266;52.434;17.056;2023-04-09T03:24:02;101522.55;;;5.24;90.00
54369;BME280;40266;52.434;17.056;2023-04-09T03:26:45;101527.72;;;5.23;89.91
54369;BME280;40266;52.434;17.056;2023-04-09T03:29:29;101528.38;;;5.22;89.82
54369;BME280;40266;52.434;17.056;2023-04-09T03:32:13;101527.34;;;5.20;90.14
54369;BME280;40266;52.434;17.056;2023-04-09T03:34:57;101523.84;;;5.19;90.20
54369;BME280;40266;52.434;17.056;2023-04-09T03:37:40;101524.88;;;5.19;90.15
54369;BME280;40266;52.434;17.056;2023-04-09T03:40:28;101525.20;;;5.18;90.17
54369;BME280;40266;52.434;17.056;2023-04-09T03:43:17;101517.55;;;5.16;90.35
54369;BME280;40266;52.434;17.056;2023-04-09T03:46:11;101516.64;;;5.14;90.40
54369;BME280;40266;52.434;17.056;2023-04-09T03:48:55;101511.20;;;5.10;90.54
54369;BME280;40266;52.434;17.056;2023-04-09T03:51:40;101518.08;;;5.07;90.49
54369;BME280;40266;52.434;17.056;2023-04-09T03:54:23;101518.70;;;5.04;90.53
54369;BME280;40266;52.434;17.056;2023-04-09T03:57:07;101518.31;;;5.01;90.61
54369;BME280;40266;52.434;17.056;2023-04-09T03:59:52;101516.02;;;4.99;90.62
54369;BME280;40266;52.434;17.056;2023-04-09T04:02:36;101516.69;;;4.97;90.77
54369;BME280;40266;52.434;17.056;2023-04-09T04:05:21;101517.34;;;4.96;90.99
54369;BME280;40266;52.434;17.056;2023-04-09T04:08:05;101520.98;;;4.96;90.99
54369;BME280;40266;52.434;17.056;2023-04-09T04:11:08;101522.88;;;4.96;91.13
54369;BME280;40266;52.434;17.056;2023-04-09T04:13:51;101524.27;;;4.96;91.21
54369;BME280;40266;52.434;17.056;2023-04-09T04:16:39;101528.77;;;4.96;91.17
54369;BME280;40266;52.434;17.056;2023-04-09T04:19:22;101530.50;;;4.96;91.42
54369;BME280;40266;52.434;17.056;2023-04-09T04:22:06;101529.81;;;4.96;91.50
54369;BME280;40266;52.434;17.056;2023-04-09T04:24:50;101526.88;;;4.96;91.52
54369;BME280;40266;52.434;17.056;2023-04-09T04:27:35;101525.84;;;4.97;91.55
54369;BME280;40266;52.434;17.056;2023-04-09T04:30:25;101526.37;;;4.97;91.47
54369;BME280;40266;52.434;17.056;2023-04-09T04:33:15;101528.27;;;4.97;91.40
54369;BME280;40266;52.434;17.056;2023-04-09T04:36:09;101525.30;;;4.96;91.40
54369;BME280;40266;52.434;17.056;2023-04-09T04:38:59;101524.05;;;4.94;91.32
54369;BME280;40266;52.434;17.056;2023-04-09T04:42:06;101523.17;;;4.92;91.32
54369;BME280;40266;52.434;17.056;2023-04-09T04:44:49;101521.59;;;4.91;91.31
54369;BME280;40266;52.434;17.056;2023-04-09T04:47:47;101521.89;;;4.90;91.13
54369;BME280;40266;52.434;17.056;2023-04-09T04:50:30;101523.98;;;4.90;91.23
54369;BME280;40266;52.434;17.056;2023-04-09T04:53:23;101525.04;;;4.91;91.32
54369;BME280;40266;52.434;17.056;2023-04-09T04:56:16;101528.02;;;4.92;91.60
54369;BME280;40266;52.434;17.056;2023-04-09T04:59:10;101531.52;;;4.95;91.77
54369;BME280;40266;52.434;17.056;2023-04-09T05:02:03;101527.94;;;4.97;91.75
54369;BME280;40266;52.434;17.056;2023-04-09T05:04:51;101529.91;;;5.01;91.85
54369;BME280;40266;52.434;17.056;2023-04-09T05:07:35;101530.14;;;5.04;91.92
54369;BME280;40266;52.434;17.056;2023-04-09T05:10:19;101528.98;;;5.07;91.92
54369;BME280;40266;52.434;17.056;2023-04-09T05:13:02;101530.96;;;5.11;91.99
54369;BME280;40266;52.434;17.056;2023-04-09T05:15:49;101535.56;;;5.16;92.11
54369;BME280;40266;52.434;17.056;2023-04-09T05:18:32;101536.00;;;5.21;92.11
54369;BME280;40266;52.434;17.056;2023-04-09T05:21:17;101532.30;;;5.27;92.39
54369;BME280;40266;52.434;17.056;2023-04-09T05:24:00;101532.44;;;5.35;92.31
54369;BME280;40266;52.434;17.056;2023-04-09T05:26:48;101531.36;;;5.43;92.35
54369;BME280;40266;52.434;17.056;2023-04-09T05:29:31;101535.70;;;5.52;92.18
54369;BME280;40266;52.434;17.056;2023-04-09T05:32:14;101535.84;;;5.62;92.12
54369;BME280;40266;52.434;17.056;2023-04-09T05:34:59;101539.48;;;5.71;91.95
54369;BME280;40266;52.434;17.056;2023-04-09T05:37:42;101534.80;;;5.83;91.82
54369;BME280;40266;52.434;17.056;2023-04-09T05:40:26;101535.86;;;5.94;91.72
54369;BME280;40266;52.434;17.056;2023-04-09T05:43:09;101531.90;;;6.06;91.56
54369;BME280;40266;52.434;17.056;2023-04-09T05:45:55;101531.56;;;6.19;91.48
54369;BME280;40266;52.434;17.056;2023-04-09T05:48:38;101532.24;;;6.31;91.41
54369;BME280;40266;52.434;17.056;2023-04-09T05:51:21;101533.66;;;6.45;91.23
54369;BME280;40266;52.434;17.056;2023-04-09T05:54:04;101535.70;;;6.57;91.13
54369;BME280;40266;52.434;17.056;2023-04-09T05:56:50;101535.30;;;6.64;91.08
54369;BME280;40266;52.434;17.056;2023-04-09T05:59:35;101539.21;;;6.73;91.22
54369;BME280;40266;52.434;17.056;2023-04-09T06:02:17;101542.26;;;6.81;91.17
54369;BME280;40266;52.434;17.056;2023-04-09T06:05:00;101541.66;;;6.89;91.10
54369;BME280;40266;52.434;17.056;2023-04-09T06:07:44;101538.62;;;6.96;91.27
54369;BME280;40266;52.434;17.056;2023-04-09T06:10:30;101539.48;;;6.95;91.01
54369;BME280;40266;52.434;17.056;2023-04-09T06:13:13;101548.60;;;6.88;90.93
54369;BME280;40266;52.434;17.056;2023-04-09T06:15:56;101548.34;;;6.82;91.00
54369;BME280;40266;52.434;17.056;2023-04-09T06:18:39;101545.86;;;6.78;91.10
54369;BME280;40266;52.434;17.056;2023-04-09T06:21:24;101542.70;;;6.74;91.03
54369;BME280;40266;52.434;17.056;2023-04-09T06:24:06;101540.44;;;6.73;91.24
54369;BME280;40266;52.434;17.056;2023-04-09T06:26:49;101538.83;;;6.70;91.22
54369;BME280;40266;52.434;17.056;2023-04-09T06:29:33;101531.73;;;6.70;91.44
54369;BME280;40266;52.434;17.056;2023-04-09T06:32:16;101527.75;;;6.72;91.47
54369;BME280;40266;52.434;17.056;2023-04-09T06:34:59;101529.27;;;6.69;91.81
54369;BME280;40266;52.434;17.056;2023-04-09T06:37:42;101535.87;;;6.70;92.22
54369;BME280;40266;52.434;17.056;2023-04-09T06:40:25;101535.77;;;6.75;92.20
54369;BME280;40266;52.434;17.056;2023-04-09T06:43:09;101537.23;;;6.82;92.45
54369;BME280;40266;52.434;17.056;2023-04-09T06:45:57;101543.39;;;6.88;92.72
54369;BME280;40266;52.434;17.056;2023-04-09T06:48:41;101550.74;;;6.94;92.75
54369;BME280;40266;52.434;17.056;2023-04-09T06:51:26;101555.65;;;6.97;92.77
54369;BME280;40266;52.434;17.056;2023-04-09T06:54:08;101558.13;;;7.02;92.79
54369;BME280;40266;52.434;17.056;2023-04-09T06:56:51;101568.25;;;7.05;92.54
54369;BME280;40266;52.434;17.056;2023-04-09T06:59:34;101574.79;;;7.01;92.52
54369;BME280;40266;52.434;17.056;2023-04-09T07:02:17;101577.17;;;6.95;92.11
54369;BME280;40266;52.434;17.056;2023-04-09T07:05:00;101579.69;;;6.88;92.21
54369;BME280;40266;52.434;17.056;2023-04-09T07:07:44;101582.91;;;6.82;92.28
54369;BME280;40266;52.434;17.056;2023-04-09T07:10:27;101585.23;;;6.74;92.56
54369;BME280;40266;52.434;17.056;2023-04-09T07:13:10;101587.65;;;6.73;92.78
54369;BME280;40266;52.434;17.056;2023-04-09T07:15:53;101588.42;;;6.79;93.00
54369;BME280;40266;52.434;17.056;2023-04-09T07:18:36;101586.27;;;6.88;93.31
54369;BME280;40266;52.434;17.056;2023-04-09T07:21:18;101584.96;;;6.94;93.27
54369;BME280;40266;52.434;17.056;2023-04-09T07:24:01;101580.20;;;7.02;93.29
54369;BME280;40266;52.434;17.056;2023-04-09T07:26:44;101581.34;;;7.12;93.23
54369;BME280;40266;52.434;17.056;2023-04-09T07:29:27;101587.94;;;7.27;93.51
54369;BME280;40266;52.434;17.056;2023-04-09T07:32:10;101589.48;;;7.41;93.61
54369;BME280;40266;52.434;17.056;2023-04-09T07:34:53;101584.34;;;7.50;93.27
54369;BME280;40266;52.434;17.056;2023-04-09T07:37:36;101585.80;;;7.56;93.18
54369;BME280;40266;52.434;17.056;2023-04-09T07:40:19;101590.02;;;7.62;93.24
54369;BME280;40266;52.434;17.056;2023-04-09T07:43:02;101596.82;;;7.63;93.00
54369;BME280;40266;52.434;17.056;2023-04-09T07:45:49;101594.95;;;7.70;92.98
54369;BME280;40266;52.434;17.056;2023-04-09T07:48:33;101593.15;;;7.80;92.86
54369;BME280;40266;52.434;17.056;2023-04-09T07:51:16;101598.81;;;7.92;92.94
54369;BME280;40266;52.434;17.056;2023-04-09T07:53:58;101599.91;;;7.98;92.63
54369;BME280;40266;52.434;17.056;2023-04-09T07:56:41;101606.43;;;8.09;92.50
54369;BME280;40266;52.434;17.056;2023-04-09T07:59:25;101601.11;;;8.18;92.34
54369;BME280;40266;52.434;17.056;2023-04-09T08:02:09;101602.58;;;8.29;92.35
54369;BME280;40266;52.434;17.056;2023-04-09T08:04:56;101602.27;;;8.36;92.15
54369;BME280;40266;52.434;17.056;2023-04-09T08:07:39;101606.52;;;8.41;91.95
54369;BME280;40266;52.434;17.056;2023-04-09T08:10:22;101606.23;;;8.52;92.08
54369;BME280;40266;52.434;17.056;2023-04-09T08:13:05;101603.90;;;8.73;91.88
54369;BME280;40266;52.434;17.056;2023-04-09T08:15:49;101601.27;;;9.05;91.63
54369;BME280;40266;52.434;17.056;2023-04-09T08:18:32;101597.87;;;9.36;91.44
54369;BME280;40266;52.434;17.056;2023-04-09T08:21:15;101602.09;;;9.52;90.91
54369;BME280;40266;52.434;17.056;2023-04-09T08:23:59;101603.48;;;9.59;90.50
54369;BME280;40266;52.434;17.056;2023-04-09T08:26:46;101603.84;;;9.61;90.10
54369;BME280;40266;52.434;17.056;2023-04-09T08:29:28;101599.48;;;9.60;89.87
54369;BME280;40266;52.434;17.056;2023-04-09T08:32:13;101599.48;;;9.61;89.77
54369;BME280;40266;52.434;17.056;2023-04-09T08:34:56;101602.80;;;9.59;89.46
54369;BME280;40266;52.434;17.056;2023-04-09T08:37:39;101604.72;;;9.59;89.41
54369;BME280;40266;52.434;17.056;2023-04-09T08:40:22;101603.48;;;9.61;89.31
54369;BME280;40266;52.434;17.056;2023-04-09T08:43:06;101600.02;;;9.68;89.41
54369;BME280;40266;52.434;17.056;2023-04-09T08:45:50;101599.51;;;9.75;89.13
54369;BME280;40266;52.434;17.056;2023-04-09T08:48:33;101597.94;;;9.80;88.84
54369;BME280;40266;52.434;17.056;2023-04-09T08:51:23;101600.55;;;9.84;88.61
54369;BME280;40266;52.434;17.056;2023-04-09T08:54:06;101599.67;;;9.93;88.61
54369;BME280;40266;52.434;17.056;2023-04-09T08:56:49;101597.95;;;9.98;88.46
54369;BME280;40266;52.434;17.056;2023-04-09T08:59:32;101598.29;;;10.02;88.29
54369;BME280;40266;52.434;17.056;2023-04-09T09:02:19;101601.60;;;9.98;87.76
54369;BME280;40266;52.434;17.056;2023-04-09T09:05:04;101602.12;;;9.93;87.68
54369;BME280;40266;52.434;17.056;2023-04-09T09:07:54;101598.63;;;9.93;87.68
54369;BME280;40266;52.434;17.056;2023-04-09T09:10:38;101601.60;;;9.96;87.82
54369;BME280;40266;52.434;17.056;2023-04-09T09:13:26;101597.59;;;9.99;87.72
54369;BME280;40266;52.434;17.056;2023-04-09T09:16:13;101602.13;;;10.00;87.71
54369;BME280;40266;52.434;17.056;2023-04-09T09:18:56;101604.38;;;10.00;87.45
54369;BME280;40266;52.434;17.056;2023-04-09T09:21:39;101608.59;;;9.99;87.22
54369;BME280;40266;52.434;17.056;2023-04-09T09:24:23;101608.40;;;9.94;87.03
54369;BME280;40266;52.434;17.056;2023-04-09T09:27:06;101604.05;;;9.92;86.97
54369;BME280;40266;52.434;17.056;2023-04-09T09:29:49;101601.61;;;9.95;87.17
54369;BME280;40266;52.434;17.056;2023-04-09T09:32:32;101600.91;;;9.97;87.04
54369;BME280;40266;52.434;17.056;2023-04-09T09:35:15;101597.60;;;10.00;86.73
54369;BME280;40266;52.434;17.056;2023-04-09T09:38:02;101594.80;;;9.99;86.67
54369;BME280;40266;52.434;17.056;2023-04-09T09:40:48;101598.11;;;10.01;86.82
54369;BME280;40266;52.434;17.056;2023-04-09T09:43:39;101593.05;;;10.06;86.91
54369;BME280;40266;52.434;17.056;2023-04-09T09:46:23;101593.05;;;10.12;86.80
54369;BME280;40266;52.434;17.056;2023-04-09T09:49:08;101596.70;;;10.18;86.55
54369;BME280;40266;52.434;17.056;2023-04-09T09:51:51;101594.59;;;10.23;86.53
54369;BME280;40266;52.434;17.056;2023-04-09T09:54:39;101593.40;;;10.31;86.39
54369;BME280;40266;52.434;17.056;2023-04-09T09:57:25;101591.13;;;10.38;86.43
54369;BME280;40266;52.434;17.056;2023-04-09T10:00:12;101587.09;;;10.45;86.07
54369;BME280;40266;52.434;17.056;2023-04-09T10:02:58;101585.52;;;10.49;86.06
54369;BME280;40266;52.434;17.056;2023-04-09T10:05:41;101587.58;;;10.55;85.81
54369;BME280;40266;52.434;17.056;2023-04-09T10:08:24;101584.77;;;10.61;85.71
54369;BME280;40266;52.434;17.056;2023-04-09T10:11:07;101581.98;;;10.65;85.55
54369;BME280;40266;52.434;17.056;2023-04-09T10:13:52;101583.71;;;10.66;85.22
54369;BME280;40266;52.434;17.056;2023-04-09T10:16:38;101580.92;;;10.63;84.64
54369;BME280;40266;52.434;17.056;2023-04-09T10:19:20;101583.19;;;10.62;84.72
54369;BME280;40266;52.434;17.056;2023-04-09T10:22:08;101586.16;;;10.62;84.73
54369;BME280;40266;52.434;17.056;2023-04-09T10:24:52;101581.46;;;10.59;84.46
54369;BME280;40266;52.434;17.056;2023-04-09T10:27:35;101581.63;;;10.63;84.63
54369;BME280;40266;52.434;17.056;2023-04-09T10:30:52;101578.44;;;10.73;84.83
54369;BME280;40266;52.434;17.056;2023-04-09T10:33:28;101575.45;;;10.81;84.56
54369;BME280;40266;52.434;17.056;2023-04-09T10:36:11;101573.33;;;10.88;84.61
54369;BME280;40266;52.434;17.056;2023-04-09T10:38:58;101573.14;;;10.88;84.07
54369;BME280;40266;52.434;17.056;2023-04-09T10:41:43;101569.48;;;10.88;83.97
54369;BME280;40266;52.434;17.056;2023-04-09T10:44:28;101565.79;;;10.89;83.93
54369;BME280;40266;52.434;17.056;2023-04-09T10:47:14;101566.14;;;10.92;83.61
54369;BME280;40266;52.434;17.056;2023-04-09T10:52:58;101570.89;;;10.83;82.78
54369;BME280;40266;52.434;17.056;2023-04-09T10:55:42;101570.73;;;10.80;82.63
54369;BME280;40266;52.434;17.056;2023-04-09T10:58:30;101569.34;;;10.80;82.84
54369;BME280;40266;52.434;17.056;2023-04-09T11:01:20;101566.16;;;10.87;83.14
54369;BME280;40266;52.434;17.056;2023-04-09T11:04:15;101564.88;;;10.99;83.09
54369;BME280;40266;52.434;17.056;2023-04-09T11:06:59;101558.88;;;11.08;82.67
54369;BME280;40266;52.434;17.056;2023-04-09T11:09:43;101558.83;;;11.19;82.75
54369;BME280;40266;52.434;17.056;2023-04-09T11:12:26;101558.75;;;11.33;82.37
54369;BME280;40266;52.434;17.056;2023-04-09T11:15:15;101559.34;;;11.47;82.44
54369;BME280;40266;52.434;17.056;2023-04-09T11:17:59;101558.86;;;11.65;82.35
54369;BME280;40266;52.434;17.056;2023-04-09T11:20:45;101558.42;;;11.77;80.92
54369;BME280;40266;52.434;17.056;2023-04-09T11:23:28;101557.64;;;11.90;80.97
54369;BME280;40266;52.434;17.056;2023-04-09T11:26:11;101559.20;;;12.13;81.00
54369;BME280;40266;52.434;17.056;2023-04-09T11:28:55;101554.33;;;12.26;80.27
54369;BME280;40266;52.434;17.056;2023-04-09T11:31:41;101552.64;;;12.35;80.41
54369;BME280;40266;52.434;17.056;2023-04-09T11:34:27;101555.24;;;12.55;80.29
54369;BME280;40266;52.434;17.056;2023-04-09T11:37:17;101553.91;;;12.64;79.61
54369;BME280;40266;52.434;17.056;2023-04-09T11:40:00;101552.32;;;12.65;79.06
54369;BME280;40266;52.434;17.056;2023-04-09T11:42:43;101550.79;;;12.75;79.20
54369;BME280;40266;52.434;17.056;2023-04-09T11:45:27;101549.09;;;12.85;78.52
54369;BME280;40266;52.434;17.056;2023-04-09T11:48:10;101552.98;;;12.82;77.94
54369;BME280;40266;52.434;17.056;2023-04-09T11:50:58;101551.88;;;12.86;77.87
54369;BME280;40266;52.434;17.056;2023-04-09T11:53:42;101545.89;;;12.88;77.26
54369;BME280;40266;52.434;17.056;2023-04-09T11:56:29;101541.33;;;12.88;77.48
54369;BME280;40266;52.434;17.056;2023-04-09T11:59:13;101544.61;;;12.91;77.42
54369;BME280;40266;52.434;17.056;2023-04-09T12:01:57;101539.16;;;12.94;77.58
54369;BME280;40266;52.434;17.056;2023-04-09T12:04:47;101539.42;;;13.00;77.19
54369;BME280;40266;52.434;17.056;2023-04-09T12:07:32;101538.69;;;13.02;77.04
54369;BME280;40266;52.434;17.056;2023-04-09T12:10:18;101542.14;;;13.06;76.95
54369;BME280;40266;52.434;17.056;2023-04-09T12:13:08;101541.20;;;13.10;76.63
54369;BME280;40266;52.434;17.056;2023-04-09T12:15:52;101542.77;;;13.12;76.45
54369;BME280;40266;52.434;17.056;2023-04-09T12:18:35;101544.36;;;13.11;76.04
54369;BME280;40266;52.434;17.056;2023-04-09T12:21:19;101539.35;;;13.04;75.91
54369;BME280;40266;52.434;17.056;2023-04-09T12:24:05;101541.48;;;13.04;76.10
54369;BME280;40266;52.434;17.056;2023-04-09T12:26:48;101539.49;;;13.07;75.93
54369;BME280;40266;52.434;17.056;2023-04-09T12:29:31;101543.80;;;13.13;75.84
54369;BME280;40266;52.434;17.056;2023-04-09T12:32:15;101541.30;;;13.16;75.63
54369;BME280;40266;52.434;17.056;2023-04-09T12:34:58;101541.23;;;13.21;75.94
54369;BME280;40266;52.434;17.056;2023-04-09T12:37:41;101541.75;;;13.35;76.02
54369;BME280;40266;52.434;17.056;2023-04-09T12:40:24;101538.23;;;13.47;75.85
54369;BME280;40266;52.434;17.056;2023-04-09T12:43:07;101539.11;;;13.58;75.78
54369;BME280;40266;52.434;17.056;2023-04-09T12:45:50;101541.63;;;13.65;75.34
54369;BME280;40266;52.434;17.056;2023-04-09T12:48:38;101540.45;;;13.62;74.62
54369;BME280;40266;52.434;17.056;2023-04-09T12:51:21;101539.54;;;13.54;74.31
54369;BME280;40266;52.434;17.056;2023-04-09T12:54:05;101537.15;;;13.49;74.20
54369;BME280;40266;52.434;17.056;2023-04-09T12:56:48;101539.86;;;13.45;74.27
54369;BME280;40266;52.434;17.056;2023-04-09T12:59:31;101535.42;;;13.48;74.23
54369;BME280;40266;52.434;17.056;2023-04-09T13:02:14;101532.55;;;13.52;74.64
54369;BME280;40266;52.434;17.056;2023-04-09T13:04:57;101531.75;;;13.59;74.75
54369;BME280;40266;52.434;17.056;2023-04-09T13:07:40;101531.58;;;13.57;74.07
54369;BME280;40266;52.434;17.056;2023-04-09T13:10:25;101529.56;;;13.62;74.43
54369;BME280;40266;52.434;17.056;2023-04-09T13:13:07;101523.48;;;13.69;73.86
54369;BME280;40266;52.434;17.056;2023-04-09T13:15:53;101523.68;;;13.68;73.72
54369;BME280;40266;52.434;17.056;2023-04-09T13:18:36;101523.55;;;13.76;74.11
54369;BME280;40266;52.434;17.056;2023-04-09T13:21:19;101525.85;;;13.85;74.09
54369;BME280;40266;52.434;17.056;2023-04-09T13:24:02;101531.79;;;13.87;73.80
54369;BME280;40266;52.434;17.056;2023-04-09T13:26:45;101530.17;;;13.89;73.44
54369;BME280;40266;52.434;17.056;2023-04-09T13:29:28;101529.12;;;13.89;72.93
54369;BME280;40266;52.434;17.056;2023-04-09T13:32:11;101527.81;;;13.84;73.08
54369;BME280;40266;52.434;17.056;2023-04-09T13:35:01;101533.64;;;13.83;73.31
54369;BME280;40266;52.434;17.056;2023-04-09T13:37:44;101532.76;;;13.82;73.63
54369;BME280;40266;52.434;17.056;2023-04-09T13:40:30;101531.89;;;13.81;73.22
54369;BME280;40266;52.434;17.056;2023-04-09T13:43:58;101526.25;;;13.72;72.63
54369;BME280;40266;52.434;17.056;2023-04-09T13:46:41;101526.07;;;13.72;73.05
54369;BME280;40266;52.434;17.056;2023-04-09T13:49:24;101524.60;;;13.77;73.31
54369;BME280;40266;52.434;17.056;2023-04-09T13:52:10;101525.13;;;13.76;73.04
54369;BME280;40266;52.434;17.056;2023-04-09T13:54:53;101529.83;;;13.79;73.16
54369;BME280;40266;52.434;17.056;2023-04-09T13:57:39;101530.59;;;13.75;72.56
54369;BME280;40266;52.434;17.056;2023-04-09T14:00:22;101527.05;;;13.78;73.16
54369;BME280;40266;52.434;17.056;2023-04-09T14:03:05;101525.65;;;13.86;73.42
54369;BME280;40266;52.434;17.056;2023-04-09T14:05:48;101528.03;;;13.91;73.12
54369;BME280;40266;52.434;17.056;2023-04-09T14:08:32;101526.70;;;13.87;72.67
54369;BME280;40266;52.434;17.056;2023-04-09T14:11:15;101525.29;;;13.78;72.56
54369;BME280;40266;52.434;17.056;2023-04-09T14:13:58;101524.46;;;13.74;72.95
54369;BME280;40266;52.434;17.056;2023-04-09T14:16:41;101526.41;;;13.73;72.82
54369;BME280;40266;52.434;17.056;2023-04-09T14:19:24;101523.46;;;13.71;72.56
54369;BME280;40266;52.434;17.056;2023-04-09T14:22:07;101523.75;;;13.64;72.47
54369;BME280;40266;52.434;17.056;2023-04-09T14:24:50;101524.70;;;13.59;72.84
54369;BME280;40266;52.434;17.056;2023-04-09T14:27:33;101527.89;;;13.58;72.80
54369;BME280;40266;52.434;17.056;2023-04-09T14:30:16;101527.08;;;13.54;72.52
54369;BME280;40266;52.434;17.056;2023-04-09T14:32:59;101527.88;;;13.48;72.69